Terminal Aerodrome Forecast
Issued by NWS Charleston, WV

Home | Current Version | Previous Version | Text Only | Print | Product List | Glossary On
Versions: 1 2 3 4 5 6 7 8 9 10 11 12 13 14 15 16 17 18 19 20 21 22 23
000
FTUS41 KRLX 240500
TAFBKW
TAF
KBKW 240527Z 2406/2506 VRB03KT P6SM SKC
     FM241400 09004KT P6SM BKN080
     FM242000 13006KT P6SM SCT250
     FM250500 14009KT P6SM SCT250=

USA.gov is the U.S. government's official web portal to all federal, state and local government web resources and services.